createdAt,value
2019-02-02T00:05:18.262Z,23.18
2019-02-02T00:07:47.765Z,26.07
2019-02-02T00:10:35.848Z,23.27
2019-02-02T00:16:05.182Z,27.40
2019-02-02T00:18:20.306Z,24.12
2019-02-02T00:20:49.463Z,22.87
2019-02-02T00:23:18.413Z,27.70
2019-02-02T00:25:47.701Z,22.48
2019-02-02T00:28:16.742Z,26.35
2019-02-02T00:30:45.700Z,26.95
2019-02-02T00:33:14.640Z,25.17
2019-02-02T00:35:43.597Z,31.15
2019-02-02T00:38:33.169Z,26.82
2019-02-02T00:41:02.154Z,27.60
2019-02-02T00:43:31.160Z,28.62
2019-02-02T00:46:00.267Z,24.67
2019-02-02T00:48:29.509Z,28.25
2019-02-02T00:50:58.550Z,25.95
2019-02-02T00:53:27.746Z,27.58
2019-02-02T00:55:56.707Z,27.50
2019-02-02T00:58:25.613Z,27.65
2019-02-02T01:00:54.630Z,30.65
2019-02-02T01:03:23.401Z,26.07
2019-02-02T01:05:52.031Z,29.18
2019-02-02T01:08:20.786Z,27.52
2019-02-02T01:10:49.460Z,26.75
2019-02-02T01:13:18.164Z,27.85
2019-02-02T01:15:46.880Z,29.12
2019-02-02T01:18:15.502Z,26.62
2019-02-02T01:20:44.111Z,28.12
2019-02-02T01:23:12.817Z,28.02
2019-02-02T01:25:41.429Z,29.45
2019-02-02T01:28:10.273Z,30.52
2019-02-02T01:30:38.962Z,28.92
2019-02-02T01:33:07.722Z,27.30
2019-02-02T01:35:36.408Z,29.00
2019-02-02T01:38:05.260Z,29.95
2019-02-02T01:40:33.911Z,27.32
2019-02-02T01:43:02.538Z,28.62
2019-02-02T01:45:31.149Z,28.32
2019-02-02T01:47:59.950Z,26.55
2019-02-02T01:50:28.710Z,31.55
2019-02-02T01:52:57.634Z,27.00
2019-02-02T01:55:26.315Z,27.85
2019-02-02T01:57:55.103Z,28.50
2019-02-02T02:00:25.728Z,25.68
2019-02-02T02:02:54.423Z,27.93
2019-02-02T02:05:23.123Z,27.15
2019-02-02T02:07:51.903Z,27.62
2019-02-02T02:13:34.672Z,33.20
2019-02-02T02:16:03.394Z,28.75
2019-02-02T02:18:32.014Z,30.32
2019-02-02T02:21:00.628Z,29.20
2019-02-02T02:23:29.283Z,29.30
2019-02-02T02:25:57.848Z,31.77
2019-02-02T02:28:28.237Z,32.23
2019-02-02T02:30:56.808Z,30.27
2019-02-02T02:33:25.503Z,32.38
2019-02-02T02:35:54.102Z,35.88
2019-02-02T02:38:22.855Z,30.97
2019-02-02T02:40:51.480Z,29.00
2019-02-02T02:43:20.101Z,35.63
2019-02-02T02:45:48.731Z,32.50
2019-02-02T02:48:17.419Z,34.63
2019-02-02T02:50:46.079Z,30.00
2019-02-02T02:53:14.680Z,28.65
2019-02-02T02:55:43.316Z,31.27
2019-02-02T02:58:11.987Z,31.77
2019-02-02T03:00:40.613Z,32.23
2019-02-02T03:03:09.312Z,29.75
2019-02-02T03:05:38.031Z,34.25
2019-02-02T03:08:06.727Z,34.53
2019-02-02T03:10:35.449Z,31.35
2019-02-02T03:13:04.142Z,34.05
2019-02-02T03:15:32.829Z,34.85
2019-02-02T03:18:01.584Z,33.05
2019-02-02T03:20:30.200Z,29.52
2019-02-02T03:22:58.815Z,28.52
2019-02-02T03:25:27.622Z,31.85
2019-02-02T03:27:56.295Z,35.23
2019-02-02T03:30:24.939Z,34.75
2019-02-02T03:32:53.613Z,38.42
2019-02-02T03:36:02.574Z,35.83
2019-02-02T03:38:31.197Z,33.75
2019-02-02T03:40:59.859Z,34.25
2019-02-02T03:43:28.542Z,30.55
2019-02-02T03:45:57.237Z,34.43
2019-02-02T03:48:25.922Z,34.95
2019-02-02T03:50:54.535Z,42.40
2019-02-02T03:53:23.156Z,37.60
2019-02-02T03:55:51.819Z,42.05
2019-02-02T03:58:20.506Z,35.83
2019-02-02T04:00:49.220Z,31.82
2019-02-02T04:03:17.913Z,36.13
2019-02-02T04:05:46.617Z,38.48
2019-02-02T04:08:15.250Z,36.23
2019-02-02T04:10:43.956Z,34.58
2019-02-02T04:13:12.591Z,33.02
2019-02-02T04:15:41.295Z,33.02
2019-02-02T04:18:09.919Z,34.13
2019-02-02T04:20:38.541Z,32.78
2019-02-02T04:23:07.321Z,34.75
2019-02-02T04:25:35.992Z,34.23
2019-02-02T04:28:04.656Z,32.73
2019-02-02T04:30:33.355Z,39.70
2019-02-02T04:33:01.962Z,34.33
2019-02-02T04:35:30.639Z,36.90
2019-02-02T04:37:59.208Z,34.70
2019-02-02T04:40:27.928Z,36.55
2019-02-02T04:42:56.546Z,39.05
2019-02-02T04:45:25.181Z,38.58
2019-02-02T04:47:53.811Z,36.45
2019-02-02T04:50:22.491Z,38.15
2019-02-02T04:52:51.208Z,39.00
2019-02-02T04:55:19.929Z,33.58
2019-02-02T04:57:48.764Z,38.85
2019-02-02T05:00:22.742Z,33.75
2019-02-02T05:03:31.158Z,32.50
2019-02-02T05:05:59.835Z,37.28
2019-02-02T05:08:28.486Z,32.42
2019-02-02T05:10:57.140Z,34.85
2019-02-02T05:13:25.755Z,34.15
2019-02-02T05:15:54.370Z,34.55
2019-02-02T05:18:23.019Z,33.35
2019-02-02T05:20:51.688Z,32.85
2019-02-02T05:23:20.322Z,34.00
2019-02-02T05:25:48.956Z,31.62
2019-02-02T05:28:17.581Z,31.82
2019-02-02T05:30:46.189Z,38.53
2019-02-02T05:33:14.823Z,36.85
2019-02-02T05:35:43.440Z,35.17
2019-02-02T05:38:12.132Z,31.60
2019-02-02T05:40:40.755Z,33.63
2019-02-02T05:43:09.462Z,30.97
2019-02-02T05:45:38.155Z,30.88
2019-02-02T05:48:06.774Z,33.33
2019-02-02T05:50:35.480Z,38.83
2019-02-02T05:53:04.189Z,30.48
2019-02-02T05:55:32.886Z,40.83
2019-02-02T05:58:01.517Z,37.93
2019-02-02T06:03:24.362Z,43.98
2019-02-02T06:05:53.061Z,37.63
2019-02-02T06:08:21.675Z,38.10
2019-02-02T06:10:50.362Z,37.63
2019-02-02T06:13:19.349Z,38.50
2019-02-02T06:15:47.944Z,37.70
2019-02-02T06:18:16.559Z,43.35
2019-02-02T06:20:45.175Z,39.78
2019-02-02T06:23:13.806Z,49.58
2019-02-02T06:25:42.427Z,38.45
2019-02-02T06:28:11.081Z,38.98
2019-02-02T06:30:39.797Z,44.03
2019-02-02T06:33:08.441Z,44.03
2019-02-02T06:35:37.144Z,45.33
2019-02-02T06:38:05.912Z,44.20
2019-02-02T06:40:34.525Z,48.25
2019-02-02T06:43:03.302Z,44.13
2019-02-02T06:45:33.949Z,40.25
2019-02-02T06:48:02.666Z,42.13
2019-02-02T06:50:31.354Z,37.75
2019-02-02T06:53:00.263Z,42.35
2019-02-02T06:55:28.965Z,47.90
2019-02-02T06:57:57.642Z,45.83
2019-02-02T07:00:26.744Z,41.95
2019-02-02T07:05:58.309Z,44.98
2019-02-02T07:08:26.940Z,46.18
2019-02-02T07:10:55.564Z,41.77
2019-02-02T07:13:24.284Z,44.85
2019-02-02T07:15:52.908Z,36.95
2019-02-02T07:18:21.569Z,44.75
2019-02-02T07:20:50.198Z,38.28
2019-02-02T07:23:18.905Z,41.23
2019-02-02T07:25:47.646Z,45.45
2019-02-02T07:28:16.271Z,54.88
2019-02-02T07:30:44.936Z,47.67
2019-02-02T07:33:13.698Z,40.55
2019-02-02T07:35:42.360Z,46.13
2019-02-02T07:38:10.992Z,43.85
2019-02-02T07:40:39.745Z,43.95
2019-02-02T07:43:08.475Z,47.40
2019-02-02T07:45:37.110Z,44.35
2019-02-02T07:48:05.792Z,44.65
2019-02-02T07:50:34.418Z,43.38
2019-02-02T07:53:03.053Z,39.88
2019-02-02T07:55:31.778Z,47.00
2019-02-02T07:58:00.382Z,47.80
2019-02-02T08:00:41.235Z,52.05
2019-02-02T08:03:10.811Z,48.05
2019-02-02T08:05:39.513Z,45.35
2019-02-02T08:08:08.193Z,46.33
2019-02-02T08:10:36.810Z,41.58
2019-02-02T08:16:19.723Z,42.25
2019-02-02T08:18:48.417Z,41.48
2019-02-02T08:21:17.246Z,42.48
2019-02-02T08:23:45.825Z,46.65
2019-02-02T08:26:14.586Z,47.95
2019-02-02T08:28:43.301Z,49.20
2019-02-02T08:31:11.957Z,47.73
2019-02-02T08:33:40.617Z,46.85
2019-02-02T08:36:09.244Z,47.85
2019-02-02T08:38:37.980Z,52.15
2019-02-02T08:41:06.681Z,49.33
2019-02-02T08:43:35.278Z,51.40
2019-02-02T08:46:04.083Z,50.65
2019-02-02T08:48:32.731Z,47.30
2019-02-02T08:51:01.462Z,51.53
2019-02-02T08:53:30.147Z,51.58
2019-02-02T08:55:58.815Z,48.80
2019-02-02T08:58:27.508Z,52.10
2019-02-02T09:01:03.867Z,46.55
2019-02-02T09:03:26.549Z,45.23
2019-02-02T09:05:55.336Z,48.00
2019-02-02T09:08:24.132Z,50.55
2019-02-02T09:10:52.864Z,52.33
2019-02-02T09:13:21.618Z,51.05
2019-02-02T09:15:50.332Z,54.65
2019-02-02T09:18:19.044Z,54.53
2019-02-02T09:20:47.776Z,50.98
2019-02-02T09:23:16.460Z,48.25
2019-02-02T09:25:45.133Z,53.28
2019-02-02T09:28:13.852Z,54.45
2019-02-02T09:30:42.491Z,51.83
2019-02-02T09:33:11.101Z,54.67
2019-02-02T09:35:39.892Z,50.88
2019-02-02T09:38:08.507Z,51.92
2019-02-02T09:40:37.278Z,48.30
2019-02-02T09:43:06.062Z,52.80
2019-02-02T09:45:36.860Z,53.50
2019-02-02T09:48:05.752Z,58.65
2019-02-02T09:50:34.365Z,58.85
2019-02-02T09:53:03.049Z,51.80
2019-02-02T09:55:31.752Z,53.15
2019-02-02T09:58:03.408Z,49.38
2019-02-02T10:00:32.809Z,57.35
2019-02-02T10:03:01.605Z,48.87
2019-02-02T10:05:30.998Z,50.78
2019-02-02T10:07:59.709Z,55.33
2019-02-02T10:10:30.327Z,52.93
2019-02-02T10:12:59.003Z,56.28
2019-02-02T10:15:27.693Z,51.77
2019-02-02T10:17:56.410Z,52.78
2019-02-02T10:20:26.579Z,53.45
2019-02-02T10:23:35.072Z,58.70
2019-02-02T10:26:03.751Z,52.78
2019-02-02T10:28:32.362Z,50.17
2019-02-02T10:31:00.976Z,59.00
2019-02-02T10:33:29.801Z,56.00
2019-02-02T10:35:58.393Z,52.75
2019-02-02T10:38:27.099Z,51.75
2019-02-02T10:40:55.726Z,60.08
2019-02-02T10:43:24.502Z,59.53
2019-02-02T10:45:53.185Z,56.50
2019-02-02T10:48:21.808Z,60.43
2019-02-02T10:50:50.426Z,61.83
2019-02-02T10:53:19.073Z,62.25
2019-02-02T10:55:47.787Z,60.10
2019-02-02T10:58:16.520Z,64.87
2019-02-02T11:00:45.246Z,58.10
2019-02-02T11:03:13.900Z,58.20
2019-02-02T11:05:42.610Z,63.90
2019-02-02T11:08:11.296Z,57.78
2019-02-02T11:10:40.058Z,57.60
2019-02-02T11:13:08.800Z,65.00
2019-02-02T11:15:37.728Z,69.85
2019-02-02T11:18:06.803Z,64.82
2019-02-02T11:20:56.452Z,62.20
2019-02-02T11:23:25.339Z,60.70
2019-02-02T11:25:54.066Z,58.20
2019-02-02T11:28:22.803Z,69.77
2019-02-02T11:30:52.264Z,66.85
2019-02-02T11:33:21.713Z,64.53
2019-02-02T11:35:50.441Z,65.00
2019-02-02T11:38:19.148Z,60.38
2019-02-02T11:40:47.866Z,57.10
2019-02-02T11:43:16.559Z,60.15
2019-02-02T11:45:45.270Z,58.20
2019-02-02T11:48:15.089Z,57.35
2019-02-02T11:50:44.412Z,59.33
2019-02-02T11:53:13.034Z,66.45
2019-02-02T11:55:41.729Z,71.05
2019-02-02T11:58:10.435Z,72.12
2019-02-02T12:00:41.100Z,69.15
2019-02-02T12:03:09.845Z,73.35
2019-02-02T12:05:38.561Z,70.03
2019-02-02T12:08:07.330Z,62.98
2019-02-02T12:10:36.142Z,65.50
2019-02-02T12:13:05.069Z,67.65
2019-02-02T12:15:33.729Z,70.92
2019-02-02T12:18:02.547Z,72.80
2019-02-02T12:20:33.372Z,66.12
2019-02-02T12:23:01.604Z,62.05
2019-02-02T12:25:30.316Z,73.40
2019-02-02T12:27:59.008Z,69.10
2019-02-02T12:30:46.879Z,60.12
2019-02-02T12:33:15.586Z,69.35
2019-02-02T12:35:44.333Z,66.53
2019-02-02T12:38:12.955Z,71.55
2019-02-02T12:40:41.642Z,59.55
2019-02-02T12:43:11.688Z,65.50
2019-02-02T12:46:00.031Z,55.23
2019-02-02T12:48:28.683Z,57.38
2019-02-02T12:50:57.388Z,56.28
2019-02-02T12:53:26.119Z,59.23
2019-02-02T12:55:54.858Z,60.55
2019-02-02T12:58:23.552Z,70.03
2019-02-02T13:00:52.240Z,59.67
2019-02-02T13:03:20.981Z,62.15
2019-02-02T13:05:49.716Z,55.00
2019-02-02T13:08:18.397Z,60.70
2019-02-02T13:10:47.044Z,58.35
2019-02-02T13:13:15.759Z,52.38
2019-02-02T13:15:44.444Z,55.90
2019-02-02T13:18:13.153Z,52.33
2019-02-02T13:20:41.749Z,42.85
2019-02-02T13:23:10.362Z,51.08
2019-02-02T13:25:39.114Z,46.63
2019-02-02T13:28:07.792Z,49.58
2019-02-02T13:30:36.924Z,45.58
2019-02-02T13:33:06.746Z,51.42
2019-02-02T13:35:37.752Z,40.65
2019-02-02T13:41:33.863Z,56.68
2019-02-02T13:44:02.490Z,46.37
2019-02-02T13:46:31.201Z,44.10
2019-02-02T13:48:59.826Z,50.23
2019-02-02T13:51:28.526Z,43.33
2019-02-02T13:53:57.225Z,46.25
2019-02-02T13:56:25.875Z,47.50
2019-02-02T13:58:54.513Z,46.23
2019-02-02T14:01:23.282Z,45.05
2019-02-02T14:03:51.884Z,43.15
2019-02-02T14:06:20.600Z,47.93
2019-02-02T14:08:49.354Z,43.40
2019-02-02T14:11:17.984Z,50.00
2019-02-02T14:13:46.608Z,50.00
2019-02-02T14:16:15.242Z,49.77
2019-02-02T14:18:43.897Z,49.95
2019-02-02T14:21:12.535Z,46.65
2019-02-02T14:23:41.170Z,51.85
2019-02-02T14:26:09.802Z,49.13
2019-02-02T14:28:38.452Z,47.83
2019-02-02T14:31:07.091Z,46.80
2019-02-02T14:33:35.701Z,57.50
2019-02-02T14:36:04.383Z,55.50
2019-02-02T14:38:32.999Z,52.17
2019-02-02T14:41:01.632Z,48.65
2019-02-02T14:43:30.363Z,47.05
2019-02-02T14:45:59.002Z,46.53
2019-02-02T14:48:27.718Z,45.25
2019-02-02T14:50:56.360Z,50.63
2019-02-02T14:53:24.984Z,49.25
2019-02-02T14:55:53.621Z,48.87
2019-02-02T14:58:22.291Z,53.63
2019-02-02T15:00:53.883Z,44.60
2019-02-02T15:03:25.745Z,45.90
2019-02-02T15:05:51.822Z,45.98
2019-02-02T15:08:20.493Z,48.75
2019-02-02T15:10:49.180Z,52.45
2019-02-02T15:13:17.886Z,54.42
2019-02-02T15:15:46.546Z,54.67
2019-02-02T15:18:15.249Z,50.03
2019-02-02T15:20:43.852Z,51.35
2019-02-02T15:23:12.500Z,56.05
2019-02-02T15:25:41.197Z,52.05
2019-02-02T15:28:09.834Z,51.40
2019-02-02T15:30:38.447Z,55.78
2019-02-02T15:33:07.206Z,56.48
2019-02-02T15:35:35.896Z,50.67
2019-02-02T15:38:04.781Z,53.33
2019-02-02T15:40:33.431Z,54.88
2019-02-02T15:43:02.192Z,44.00
2019-02-02T15:45:31.162Z,60.67
2019-02-02T15:47:59.986Z,49.77
2019-02-02T15:50:28.696Z,53.25
2019-02-02T15:52:57.428Z,49.75
2019-02-02T15:55:26.159Z,53.87
2019-02-02T15:57:54.790Z,55.35
2019-02-02T16:00:42.691Z,51.45
2019-02-02T16:03:11.471Z,56.30
2019-02-02T16:05:40.167Z,50.78
2019-02-02T16:08:28.020Z,54.42
2019-02-02T16:10:56.771Z,60.67
2019-02-02T16:13:25.473Z,62.88
2019-02-02T16:15:54.116Z,65.87
2019-02-02T16:18:22.759Z,60.05
2019-02-02T16:20:51.388Z,59.08
2019-02-02T16:23:20.063Z,59.05
2019-02-02T16:25:48.677Z,52.85
2019-02-02T16:28:17.327Z,53.70
2019-02-02T16:30:45.942Z,53.95
2019-02-02T16:33:14.641Z,49.65
2019-02-02T16:35:43.273Z,50.15
2019-02-02T16:38:12.100Z,50.73
2019-02-02T16:40:40.754Z,48.80
2019-02-02T16:43:09.546Z,47.53
2019-02-02T16:45:38.180Z,52.58
2019-02-02T16:48:07.207Z,47.83
2019-02-02T16:50:35.932Z,50.25
2019-02-02T16:53:04.794Z,57.45
2019-02-02T16:55:34.604Z,44.50
2019-02-02T16:58:03.700Z,62.80
2019-02-02T17:00:34.813Z,51.48
2019-02-02T17:03:03.883Z,56.10
2019-02-02T17:05:32.993Z,53.80
2019-02-02T17:11:10.740Z,54.77
2019-02-02T17:16:48.167Z,49.63
2019-02-02T17:19:17.024Z,46.20
2019-02-02T17:21:46.127Z,53.75
2019-02-02T17:24:15.267Z,51.30
2019-02-02T17:26:44.795Z,51.10
2019-02-02T17:29:14.442Z,48.33
2019-02-02T17:32:02.628Z,49.73
2019-02-02T17:45:22.179Z,53.17
2019-02-02T17:51:05.748Z,59.85
2019-02-02T17:53:34.786Z,52.70
2019-02-02T18:01:57.689Z,57.30
2019-02-02T18:04:38.784Z,60.80
2019-02-02T18:06:57.229Z,57.55
2019-02-02T18:09:46.846Z,61.83
2019-02-02T18:12:15.601Z,60.58
2019-02-02T18:14:44.314Z,57.17
2019-02-02T18:17:12.990Z,56.80
2019-02-02T18:19:41.714Z,62.73
2019-02-02T18:22:10.431Z,60.00
2019-02-02T18:24:39.125Z,60.35
2019-02-02T18:27:07.743Z,64.42
2019-02-02T18:29:36.373Z,62.65
2019-02-02T18:32:12.712Z,61.48
2019-02-02T18:34:35.547Z,63.52
2019-02-02T18:37:04.239Z,61.73
2019-02-02T18:39:32.928Z,62.40
2019-02-02T18:42:00.285Z,62.43
2019-02-02T18:44:28.911Z,61.23
2019-02-02T18:47:00.932Z,66.50
2019-02-02T18:49:50.553Z,69.55
2019-02-02T18:53:00.925Z,67.80
2019-02-02T18:55:47.399Z,64.12
2019-02-02T18:58:35.542Z,65.17
2019-02-02T19:03:49.171Z,56.20
2019-02-02T19:06:19.222Z,64.22
2019-02-02T19:09:29.823Z,57.65
2019-02-02T19:12:07.523Z,63.55
2019-02-02T19:15:04.066Z,54.73
2019-02-02T19:29:19.981Z,47.23
2019-02-02T19:37:37.532Z,47.85
2019-02-02T19:44:23.529Z,37.90
2019-02-02T19:50:13.951Z,35.43
2019-02-02T19:52:46.550Z,38.75
2019-02-02T19:55:15.421Z,41.60
2019-02-02T19:57:44.352Z,33.13
2019-02-02T20:00:16.575Z,40.08
2019-02-02T20:02:45.489Z,34.48
2019-02-02T20:05:33.502Z,37.98
2019-02-02T20:08:02.342Z,32.55
2019-02-02T20:13:19.774Z,35.38
2019-02-02T20:15:56.691Z,31.17
2019-02-02T20:21:01.438Z,30.72
2019-02-02T20:23:30.261Z,34.75
2019-02-02T20:25:59.306Z,36.90
2019-02-02T20:28:28.411Z,30.65
2019-02-02T20:30:59.019Z,29.23
2019-02-02T20:33:27.846Z,34.05
2019-02-02T20:35:59.539Z,29.85
2019-02-02T20:38:28.205Z,44.55
2019-02-02T20:40:56.980Z,37.98
2019-02-02T20:43:25.841Z,36.73
2019-02-02T20:45:54.948Z,31.87
2019-02-02T20:48:43.147Z,29.25
2019-02-02T20:51:11.996Z,28.98
2019-02-02T20:53:40.812Z,24.65
2019-02-02T20:56:09.758Z,32.28
2019-02-02T20:58:44.655Z,27.65
2019-02-02T21:01:34.414Z,27.37
2019-02-02T21:04:03.303Z,27.52
2019-02-02T21:06:32.234Z,31.97
2019-02-02T21:09:01.331Z,25.15
2019-02-02T21:11:31.931Z,29.05
2019-02-02T21:14:19.926Z,34.78
2019-02-02T21:16:50.625Z,27.48
2019-02-02T21:19:19.740Z,26.52
2019-02-02T21:22:12.000Z,26.10
2019-02-02T21:26:02.859Z,28.10
2019-02-02T21:28:33.480Z,29.70
2019-02-02T21:33:45.793Z,26.40
2019-02-02T21:36:14.964Z,30.23
2019-02-02T21:38:43.921Z,29.50
2019-02-02T21:41:32.040Z,32.50
2019-02-02T21:44:21.662Z,33.53
2019-02-02T21:46:50.891Z,29.70
2019-02-02T21:49:19.713Z,30.88
2019-02-02T21:51:48.627Z,38.75
2019-02-02T21:54:17.611Z,38.73
2019-02-02T21:57:05.652Z,38.42
2019-02-02T21:59:35.829Z,37.50
2019-02-02T22:05:26.332Z,34.98
2019-02-02T22:07:56.008Z,34.43
2019-02-02T22:10:25.953Z,42.70
2019-02-02T22:13:35.738Z,39.38
2019-02-02T22:16:25.625Z,40.00
2019-02-02T22:19:26.711Z,39.18
2019-02-02T22:25:33.423Z,43.50
2019-02-02T22:31:09.860Z,41.92
2019-02-02T22:33:38.830Z,34.92
2019-02-02T22:36:07.729Z,35.52
2019-02-02T22:38:55.875Z,34.15
2019-02-02T22:44:32.746Z,34.85
2019-02-02T22:47:26.739Z,33.25
2019-02-02T22:49:55.689Z,28.92
2019-02-02T22:55:55.813Z,29.23
2019-02-02T22:58:27.401Z,23.50
2019-02-02T23:04:56.496Z,25.32
2019-02-02T23:11:22.808Z,22.37
2019-02-02T23:14:30.127Z,16.70
2019-02-02T23:17:08.858Z,17.87
2019-02-02T23:20:00.542Z,19.10
2019-02-02T23:22:29.617Z,16.82
2019-02-02T23:24:58.304Z,18.32
2019-02-02T23:27:26.996Z,16.05
2019-02-02T23:29:55.737Z,15.13
2019-02-02T23:32:43.922Z,18.32
2019-02-02T23:35:12.821Z,15.70
2019-02-02T23:37:42.378Z,14.07
2019-02-02T23:45:48.352Z,15.03
2019-02-02T23:48:17.177Z,15.00
2019-02-02T23:50:47.709Z,18.48
2019-02-02T23:53:16.348Z,18.37
2019-02-02T23:55:45.219Z,21.02
2019-02-02T23:58:13.947Z,22.35
